Time;durP1;ratioP1;P1;durP2;ratioP2;P2;SDS_P1;SDS_P2;PMS_P1;PMS_P2;Temp;Humidity;BMP_temperature;BMP_pressure;BME280_temperature;BME280_humidity;BME280_pressure;Samples;Min_cycle;Max_cycle;Signal;HPM_P1;HPM_P2
2022/02/20 01:14:34;;;;;;;;;;;2.10;92.10;;;;;;6157749;23;19916;-76
2022/02/20 01:17:01;;;;;;;;;;;1.90;91.80;;;;;;6192452;23;19916;-77
2022/02/20 01:19:38;;;;;;;;;;;1.90;91.80;;;;;;6173570;23;19917;-75
2022/02/20 01:22:05;;;;;;;;;;;1.90;92.30;;;;;;6203337;23;19939;-76
2022/02/20 01:24:33;;;;;;;;;;;1.80;92.50;;;;;;6189284;23;19916;-75
2022/02/20 01:27:01;;;;;;;;;;;1.90;92.40;;;;;;6193354;23;19916;-76
2022/02/20 01:29:31;;;;;;;;;;;1.80;92.20;;;;;;6176668;23;19916;-76
2022/02/20 01:31:58;;;;;;;;;;;1.80;92.00;;;;;;6193210;23;20337;-76
2022/02/20 01:34:25;;;;;;;;;;;1.80;92.00;;;;;;6193697;23;19917;-76
2022/02/20 01:36:52;;;;;;;;;;;1.80;93.00;;;;;;6196956;23;19916;-76
2022/02/20 01:39:19;;;;;;;;;;;1.90;92.90;;;;;;6197960;23;19917;-77
2022/02/20 01:41:48;;;;;;;;;;;1.90;93.00;;;;;;6187669;23;19916;-78
2022/02/20 01:44:15;;;;;;;;;;;1.90;92.80;;;;;;6188198;23;20261;-77
2022/02/20 01:46:46;;;;;;;;;;;1.80;92.40;;;;;;6190498;23;19920;-76
2022/02/20 01:49:13;;;;;;;;;;;1.60;91.80;;;;;;6192059;23;20247;-76
2022/02/20 01:51:40;;;;;;;;;;;1.60;91.90;;;;;;6195382;23;19963;-76
2022/02/20 01:54:07;;;;;;;;;;;1.50;92.50;;;;;;6200362;23;20286;-77
2022/02/20 01:56:36;;;;;;;;;;;1.50;92.20;;;;;;6188486;23;19920;-77
2022/02/20 01:59:04;;;;;;;;;;;1.50;92.20;;;;;;6195448;23;19920;-77
2022/02/20 02:01:31;;;;;;;;;;;1.50;92.00;;;;;;6199951;23;19916;-77
2022/02/20 02:03:58;;;;;;;;;;;1.20;92.20;;;;;;6199888;23;20345;-76
2022/02/20 02:06:25;;;;;;;;;;;1.20;92.30;;;;;;6188745;23;19916;-77
2022/02/20 02:08:52;;;;;;;;;;;1.20;92.40;;;;;;6198523;23;19920;-76
2022/02/20 02:11:19;;;;;;;;;;;1.30;93.90;;;;;;6164391;23;20396;-76
2022/02/20 02:13:45;;;;;;;;;;;1.40;93.90;;;;;;6193445;23;19965;-76
2022/02/20 02:16:12;;;;;;;;;;;1.40;93.90;;;;;;6196832;23;19916;-76
2022/02/20 02:18:40;;;;;;;;;;;1.50;93.90;;;;;;6168406;23;19950;-75
2022/02/20 02:21:06;;;;;;;;;;;1.50;93.90;;;;;;6196773;23;19916;-77
2022/02/20 02:23:33;;;;;;;;;;;1.50;94.20;;;;;;6174854;23;19960;-76
2022/02/20 02:26:00;;;;;;;;;;;1.60;94.60;;;;;;6192792;23;19923;-76
2022/02/20 02:28:27;;;;;;;;;;;1.60;94.70;;;;;;6195304;23;19939;-75
2022/02/20 02:30:54;;;;;;;;;;;1.70;94.80;;;;;;6199236;23;19920;-76
2022/02/20 02:33:26;;;;;;;;;;;1.80;94.60;;;;;;6169575;23;20171;-77
2022/02/20 02:35:53;;;;;;;;;;;1.70;94.40;;;;;;6165230;23;20338;-76
2022/02/20 02:38:26;;;;;;;;;;;1.70;94.30;;;;;;6200081;23;19927;-76
2022/02/20 02:40:54;;;;;;;;;;;1.60;94.50;;;;;;6166708;23;19920;-76
2022/02/20 02:43:21;;;;;;;;;;;1.70;94.40;;;;;;6174918;23;19916;-76
2022/02/20 02:45:48;;;;;;;;;;;1.70;94.40;;;;;;6194537;23;19916;-76
2022/02/20 02:48:15;;;;;;;;;;;1.70;94.50;;;;;;6191179;23;20316;-77
2022/02/20 02:50:41;;;;;;;;;;;1.70;94.50;;;;;;6176420;23;19916;-77
2022/02/20 02:53:08;;;;;;;;;;;1.80;94.60;;;;;;6199264;23;20400;-77
2022/02/20 02:55:35;;;;;;;;;;;1.70;94.20;;;;;;6169961;23;19920;-76
2022/02/20 02:58:03;;;;;;;;;;;1.50;93.80;;;;;;6167018;23;19916;-76
2022/02/20 03:00:33;;;;;;;;;;;1.50;93.90;;;;;;6164529;23;19920;-76
2022/02/20 03:03:02;;;;;;;;;;;1.50;94.20;;;;;;6188801;23;20334;-77
2022/02/20 03:05:30;;;;;;;;;;;1.50;94.00;;;;;;6145735;23;19916;-77
2022/02/20 03:07:57;;;;;;;;;;;1.50;93.90;;;;;;6170003;23;19916;-77
2022/02/20 03:10:23;;;;;;;;;;;1.40;93.40;;;;;;6187168;23;20231;-76
2022/02/20 03:12:51;;;;;;;;;;;1.20;93.30;;;;;;6172840;23;19920;-76
2022/02/20 03:15:18;;;;;;;;;;;1.20;93.80;;;;;;6201107;23;19916;-76
2022/02/20 03:17:46;;;;;;;;;;;1.20;94.00;;;;;;6199156;23;19920;-77
2022/02/20 03:20:13;;;;;;;;;;;1.20;94.20;;;;;;6194657;23;19927;-76
2022/02/20 03:22:39;;;;;;;;;;;1.30;94.30;;;;;;6197220;23;19923;-76
2022/02/20 03:25:06;;;;;;;;;;;1.40;94.80;;;;;;6166330;23;19947;-77
2022/02/20 03:27:33;;;;;;;;;;;1.50;94.80;;;;;;6174186;23;19924;-75
2022/02/20 03:30:00;;;;;;;;;;;1.60;94.90;;;;;;6168222;23;20261;-75
2022/02/20 03:32:27;;;;;;;;;;;1.80;95.30;;;;;;6200229;23;19916;-75
2022/02/20 03:34:54;;;;;;;;;;;1.90;95.10;;;;;;6161113;23;19939;-76
2022/02/20 03:37:21;;;;;;;;;;;2.00;95.10;;;;;;6189908;23;19923;-76
2022/02/20 03:39:48;;;;;;;;;;;2.00;95.10;;;;;;6168722;23;20325;-77
2022/02/20 03:42:15;;;;;;;;;;;2.00;95.10;;;;;;6176106;23;19920;-76
2022/02/20 03:44:41;;;;;;;;;;;2.10;95.10;;;;;;6199884;23;19967;-77
2022/02/20 03:47:08;;;;;;;;;;;1.80;94.30;;;;;;6198057;23;19916;-75
2022/02/20 03:49:35;;;;;;;;;;;1.80;94.50;;;;;;6168210;23;19939;-77
2022/02/20 03:52:02;;;;;;;;;;;1.60;94.00;;;;;;6169442;23;19915;-75
2022/02/20 03:54:28;;;;;;;;;;;1.50;93.80;;;;;;6167592;23;20329;-76
2022/02/20 03:56:55;;;;;;;;;;;1.40;93.90;;;;;;6194055;23;20345;-76
2022/02/20 03:59:22;;;;;;;;;;;1.40;94.70;;;;;;6173460;23;19920;-76
2022/02/20 04:01:51;;;;;;;;;;;1.40;94.70;;;;;;6192857;23;19923;-76
2022/02/20 04:04:18;;;;;;;;;;;1.40;95.00;;;;;;6168358;23;19916;-76
2022/02/20 04:06:44;;;;;;;;;;;1.50;95.00;;;;;;6195040;23;19947;-76
2022/02/20 04:09:12;;;;;;;;;;;1.30;94.70;;;;;;6196244;23;19916;-76
2022/02/20 04:11:39;;;;;;;;;;;1.40;95.10;;;;;;6201013;23;19923;-77
2022/02/20 04:14:05;;;;;;;;;;;1.50;95.20;;;;;;6196237;23;19970;-76
2022/02/20 04:16:32;;;;;;;;;;;1.60;95.50;;;;;;6190851;23;20326;-77
2022/02/20 04:18:59;;;;;;;;;;;1.70;95.50;;;;;;6196811;23;19920;-76
2022/02/20 04:21:26;;;;;;;;;;;1.70;95.40;;;;;;6195205;23;19916;-76
2022/02/20 04:23:53;;;;;;;;;;;1.70;95.20;;;;;;6176116;23;19917;-76
2022/02/20 04:26:20;;;;;;;;;;;1.70;95.10;;;;;;6198745;23;19908;-76
2022/02/20 04:28:47;;;;;;;;;;;1.70;95.10;;;;;;6197445;23;19916;-81
2022/02/20 04:31:14;;;;;;;;;;;1.70;95.00;;;;;;6197399;23;19920;-76
2022/02/20 04:33:41;;;;;;;;;;;1.60;95.00;;;;;;6196474;23;20383;-77
2022/02/20 04:36:08;;;;;;;;;;;1.60;95.00;;;;;;6173791;23;19924;-76
2022/02/20 04:38:35;;;;;;;;;;;1.60;95.00;;;;;;6194876;23;19924;-77
2022/02/20 04:41:01;;;;;;;;;;;1.60;95.00;;;;;;6193102;23;19955;-76
2022/02/20 04:43:28;;;;;;;;;;;1.50;95.00;;;;;;6192673;23;19979;-77
2022/02/20 04:45:55;;;;;;;;;;;1.50;95.00;;;;;;6180332;23;19924;-76
2022/02/20 04:48:22;;;;;;;;;;;1.40;94.90;;;;;;6167565;23;19917;-76
2022/02/20 04:50:49;;;;;;;;;;;1.30;95.00;;;;;;6195786;23;19966;-77
2022/02/20 04:53:15;;;;;;;;;;;1.30;94.90;;;;;;6162564;23;20249;-76
2022/02/20 04:55:42;;;;;;;;;;;1.30;94.90;;;;;;6202173;23;19916;-76
2022/02/20 04:58:09;;;;;;;;;;;1.40;95.00;;;;;;6197720;23;19917;-76
2022/02/20 05:00:35;;;;;;;;;;;1.40;95.00;;;;;;6192387;23;19920;-76
2022/02/20 05:03:02;;;;;;;;;;;1.40;95.00;;;;;;6175229;23;19917;-76
2022/02/20 05:05:29;;;;;;;;;;;1.40;95.00;;;;;;6197449;23;19939;-78
2022/02/20 05:07:56;;;;;;;;;;;1.30;94.80;;;;;;6191720;23;19923;-76
2022/02/20 05:10:22;;;;;;;;;;;1.30;94.70;;;;;;6191264;23;19963;-76
2022/02/20 05:12:49;;;;;;;;;;;1.30;94.60;;;;;;6171466;23;19916;-77
2022/02/20 05:15:16;;;;;;;;;;;1.40;95.00;;;;;;6190959;23;19916;-76
2022/02/20 05:17:43;;;;;;;;;;;1.60;95.00;;;;;;6159826;23;20333;-76
2022/02/20 05:20:10;;;;;;;;;;;1.60;94.80;;;;;;6163469;23;19953;-76
2022/02/20 05:22:37;;;;;;;;;;;1.70;94.70;;;;;;6161842;23;19971;-76
2022/02/20 05:25:04;;;;;;;;;;;1.70;94.60;;;;;;6162845;23;19916;-75
2022/02/20 05:27:30;;;;;;;;;;;1.60;94.20;;;;;;6175707;23;19920;-75
2022/02/20 05:29:57;;;;;;;;;;;1.50;94.10;;;;;;6163649;23;19917;-75
2022/02/20 05:32:24;;;;;;;;;;;1.40;94.00;;;;;;6160588;23;19916;-75
2022/02/20 05:34:52;;;;;;;;;;;1.30;93.80;;;;;;6169539;23;19916;-75
2022/02/20 05:37:19;;;;;;;;;;;1.30;93.90;;;;;;6170485;23;19916;-76
2022/02/20 05:39:46;;;;;;;;;;;1.20;93.80;;;;;;6167435;23;19920;-76
2022/02/20 05:42:13;;;;;;;;;;;1.10;93.70;;;;;;6163152;23;20331;-76
2022/02/20 05:44:39;;;;;;;;;;;1.00;94.20;;;;;;6166912;23;19916;-76
2022/02/20 05:47:06;;;;;;;;;;;0.90;94.50;;;;;;6165135;23;19967;-76
2022/02/20 05:49:33;;;;;;;;;;;0.90;94.70;;;;;;6164533;23;20271;-77
2022/02/20 05:52:00;;;;;;;;;;;0.90;94.90;;;;;;6161612;23;19928;-75
2022/02/20 05:54:26;;;;;;;;;;;0.80;95.00;;;;;;6162843;23;20277;-76
2022/02/20 05:56:53;;;;;;;;;;;0.80;95.10;;;;;;6156924;23;19968;-76
2022/02/20 05:59:20;;;;;;;;;;;0.90;95.30;;;;;;6166978;23;19916;-75
2022/02/20 06:01:47;;;;;;;;;;;0.90;95.30;;;;;;6173325;23;19917;-76
2022/02/20 06:04:14;;;;;;;;;;;0.90;95.30;;;;;;6159492;23;19916;-75
2022/02/20 06:06:40;;;;;;;;;;;1.00;95.30;;;;;;6160310;23;19916;-75
2022/02/20 06:09:07;;;;;;;;;;;1.00;95.40;;;;;;6166196;23;19923;-75
2022/02/20 06:11:35;;;;;;;;;;;1.00;95.30;;;;;;6162370;23;19920;-76
2022/02/20 06:14:02;;;;;;;;;;;1.00;95.20;;;;;;6161619;23;19916;-77
2022/02/20 06:16:28;;;;;;;;;;;1.00;95.10;;;;;;6163304;23;19923;-75
2022/02/20 06:18:57;;;;;;;;;;;1.00;95.20;;;;;;6169417;23;19924;-76
2022/02/20 06:21:24;;;;;;;;;;;1.00;95.20;;;;;;6192443;23;19916;-75
2022/02/20 06:23:51;;;;;;;;;;;1.00;95.20;;;;;;6158433;23;19917;-75
2022/02/20 06:26:17;;;;;;;;;;;1.10;95.30;;;;;;6165267;23;19916;-77
2022/02/20 06:28:44;;;;;;;;;;;1.10;95.20;;;;;;6168287;23;19916;-75
2022/02/20 06:31:11;;;;;;;;;;;1.20;95.20;;;;;;6165899;23;19917;-76
2022/02/20 06:33:37;;;;;;;;;;;1.20;95.10;;;;;;6171133;23;19951;-77
2022/02/20 06:36:06;;;;;;;;;;;1.30;95.20;;;;;;6163744;23;19917;-77
2022/02/20 06:38:33;;;;;;;;;;;1.30;95.20;;;;;;6168612;23;19924;-76
2022/02/20 06:41:01;;;;;;;;;;;1.30;95.00;;;;;;6173638;23;19924;-75
2022/02/20 06:43:28;;;;;;;;;;;1.20;94.40;;;;;;6173463;23;19921;-76
2022/02/20 06:45:54;;;;;;;;;;;1.20;94.30;;;;;;6160066;23;20334;-76
2022/02/20 06:48:22;;;;;;;;;;;1.00;94.10;;;;;;6172106;23;19924;-75
2022/02/20 06:50:49;;;;;;;;;;;1.00;94.30;;;;;;6170188;23;19940;-76
2022/02/20 06:53:15;;;;;;;;;;;1.00;94.50;;;;;;6168921;23;19921;-76
2022/02/20 06:55:42;;;;;;;;;;;1.00;94.70;;;;;;6161453;23;19916;-77
2022/02/20 06:58:09;;;;;;;;;;;1.00;94.70;;;;;;6173174;23;19939;-76
2022/02/20 07:00:36;;;;;;;;;;;1.00;94.80;;;;;;6173145;23;19920;-75
2022/02/20 07:03:03;;;;;;;;;;;1.00;94.90;;;;;;6164576;23;19916;-75
2022/02/20 07:05:30;;;;;;;;;;;1.00;95.10;;;;;;6162667;23;19928;-75
2022/02/20 07:07:59;;;;;;;;;;;1.10;95.20;;;;;;6153848;23;19916;-76
2022/02/20 07:10:26;;;;;;;;;;;1.10;95.30;;;;;;6167238;23;20380;-77
2022/02/20 07:12:53;;;;;;;;;;;1.10;95.30;;;;;;6159606;23;20245;-75
2022/02/20 07:15:20;;;;;;;;;;;1.20;95.30;;;;;;6174789;23;19916;-75
2022/02/20 07:17:46;;;;;;;;;;;1.10;95.30;;;;;;6201625;23;19920;-77
2022/02/20 07:20:13;;;;;;;;;;;1.20;95.40;;;;;;6169191;23;19916;-75
2022/02/20 07:22:40;;;;;;;;;;;1.10;95.30;;;;;;6193380;23;19920;-77
2022/02/20 07:25:07;;;;;;;;;;;1.20;95.40;;;;;;6171747;23;19916;-76
2022/02/20 07:27:42;;;;;;;;;;;1.20;95.50;;;;;;6172813;23;19916;-76
2022/02/20 07:30:09;;;;;;;;;;;1.30;96.00;;;;;;6196139;23;19916;-76
2022/02/20 07:32:36;;;;;;;;;;;1.20;96.30;;;;;;6201670;23;19932;-76
2022/02/20 07:35:03;;;;;;;;;;;1.30;96.40;;;;;;6172479;23;19923;-76
2022/02/20 07:37:31;;;;;;;;;;;1.30;96.40;;;;;;6177348;23;19926;-77
2022/02/20 07:39:57;;;;;;;;;;;1.40;96.40;;;;;;6198808;23;19916;-77
2022/02/20 07:42:24;;;;;;;;;;;1.40;96.50;;;;;;6198504;23;19942;-77
2022/02/20 07:44:51;;;;;;;;;;;1.50;96.60;;;;;;6168415;23;20338;-77
2022/02/20 07:47:18;;;;;;;;;;;1.60;96.60;;;;;;6194629;23;19917;-76
2022/02/20 07:49:44;;;;;;;;;;;1.60;96.60;;;;;;6202077;23;20261;-76
2022/02/20 07:52:11;;;;;;;;;;;1.70;96.70;;;;;;6201316;23;19923;-78
2022/02/20 07:54:38;;;;;;;;;;;1.80;96.70;;;;;;6165924;23;19966;-77
2022/02/20 07:57:06;;;;;;;;;;;1.90;96.70;;;;;;6164227;23;19924;-77
2022/02/20 07:59:33;;;;;;;;;;;2.00;96.70;;;;;;6170635;23;20388;-78
2022/02/20 08:02:00;;;;;;;;;;;2.00;96.60;;;;;;6192039;23;20345;-77
2022/02/20 08:04:27;;;;;;;;;;;2.10;97.10;;;;;;6198222;23;19991;-75
2022/02/20 08:06:54;;;;;;;;;;;2.20;96.70;;;;;;6203602;23;19968;-76
2022/02/20 08:09:21;;;;;;;;;;;2.20;96.60;;;;;;6167350;23;19920;-76
2022/02/20 08:11:48;;;;;;;;;;;2.20;96.60;;;;;;6169596;23;20360;-76
2022/02/20 08:14:15;;;;;;;;;;;2.30;96.60;;;;;;6169475;23;19917;-77
2022/02/20 08:16:41;;;;;;;;;;;2.40;96.60;;;;;;6189394;23;19975;-76
2022/02/20 08:19:08;;;;;;;;;;;2.60;96.70;;;;;;6171235;23;19939;-76
2022/02/20 08:21:35;;;;;;;;;;;2.80;96.80;;;;;;6206276;23;19934;-76
2022/02/20 08:24:02;;;;;;;;;;;3.00;96.80;;;;;;6195977;23;19920;-77
2022/02/20 08:26:29;;;;;;;;;;;3.30;96.70;;;;;;6201946;23;19987;-76
2022/02/20 08:28:56;;;;;;;;;;;3.40;96.50;;;;;;6176262;23;19920;-76
2022/02/20 08:31:23;;;;;;;;;;;3.40;95.80;;;;;;6166135;23;19967;-76
2022/02/20 08:33:53;;;;;;;;;;;3.50;96.00;;;;;;6176742;23;19960;-77
2022/02/20 08:36:20;;;;;;;;;;;3.60;95.60;;;;;;6169290;23;20333;-76
2022/02/20 08:38:47;;;;;;;;;;;3.80;95.70;;;;;;6195605;23;20289;-77
2022/02/20 08:41:14;;;;;;;;;;;4.10;95.60;;;;;;6165139;23;19916;-77
2022/02/20 08:43:41;;;;;;;;;;;4.30;95.30;;;;;;6197068;23;19939;-77
2022/02/20 08:46:08;;;;;;;;;;;4.60;95.10;;;;;;6170988;23;20273;-76
2022/02/20 08:48:36;;;;;;;;;;;4.50;94.60;;;;;;6164154;23;19916;-77
2022/02/20 08:51:03;;;;;;;;;;;4.40;94.80;;;;;;6177864;23;19904;-77
2022/02/20 08:53:30;;;;;;;;;;;4.30;94.90;;;;;;6175419;23;19916;-78
2022/02/20 08:55:57;;;;;;;;;;;4.40;95.10;;;;;;6197612;23;19958;-77
2022/02/20 08:58:24;;;;;;;;;;;4.50;95.50;;;;;;6173566;23;19917;-77
2022/02/20 09:00:50;;;;;;;;;;;4.70;95.60;;;;;;6180117;23;19920;-77
2022/02/20 09:03:19;;;;;;;;;;;4.70;95.50;;;;;;6208744;23;19919;-78
2022/02/20 09:05:46;;;;;;;;;;;4.90;95.40;;;;;;6165869;23;20285;-77
2022/02/20 09:08:13;;;;;;;;;;;5.10;95.40;;;;;;6200503;23;19904;-78
2022/02/20 09:10:40;;;;;;;;;;;5.10;95.10;;;;;;6168912;23;19923;-78
2022/02/20 09:13:07;;;;;;;;;;;5.30;95.00;;;;;;6164100;23;19944;-78
2022/02/20 09:15:34;;;;;;;;;;;5.40;95.00;;;;;;6172129;23;20226;-76
2022/02/20 09:18:02;;;;;;;;;;;5.60;94.70;;;;;;6199468;23;19916;-78
2022/02/20 09:20:30;;;;;;;;;;;5.80;94.50;;;;;;6190345;23;19939;-78
2022/02/20 09:23:03;;;;;;;;;;;6.10;94.30;;;;;;6168711;23;19916;-77
2022/02/20 09:25:30;;;;;;;;;;;6.20;93.80;;;;;;6172932;23;19971;-76
2022/02/20 09:27:57;;;;;;;;;;;6.50;93.50;;;;;;6193864;23;19920;-77
2022/02/20 09:30:24;;;;;;;;;;;6.70;93.40;;;;;;6176431;23;19939;-77
2022/02/20 09:32:50;;;;;;;;;;;6.80;92.40;;;;;;6188122;23;19970;-77
2022/02/20 09:35:17;;;;;;;;;;;7.10;92.90;;;;;;6171642;23;19956;-77
2022/02/20 09:37:44;;;;;;;;;;;7.30;92.30;;;;;;6177663;23;19939;-77
2022/02/20 09:40:14;;;;;;;;;;;7.60;92.10;;;;;;6199812;23;19966;-78
2022/02/20 09:42:41;;;;;;;;;;;7.80;91.80;;;;;;6203105;23;19920;-77
2022/02/20 09:45:08;;;;;;;;;;;7.90;91.00;;;;;;6170588;23;19920;-77
2022/02/20 09:47:39;;;;;;;;;;;7.90;90.60;;;;;;6170768;23;19920;-77
2022/02/20 09:50:06;;;;;;;;;;;8.00;90.80;;;;;;6203407;23;19908;-78
2022/02/20 09:52:33;;;;;;;;;;;8.20;90.70;;;;;;6205508;23;19923;-77
2022/02/20 09:55:00;;;;;;;;;;;8.30;90.40;;;;;;6196948;23;19924;-77
2022/02/20 09:57:29;;;;;;;55.25;33.88;;;8.50;90.50;;;;;;6164660;23;19916;-78
2022/02/20 09:59:56;;;;;;;;;;;8.60;90.10;;;;;;6166268;23;20021;-78
2022/02/20 10:02:25;;;;;;;;;;;8.70;89.00;;;;;;6169011;23;19920;-79
2022/02/20 10:04:54;;;;;;;;;;;8.90;89.00;;;;;;6175647;23;19959;-78
2022/02/20 10:07:34;;;;;;;;;;;9.00;88.20;;;;;;6199015;23;19916;-78
2022/02/20 10:10:05;;;;;;;;;;;9.20;87.50;;;;;;6165850;23;20297;-77
2022/02/20 10:12:32;;;;;;;;;;;9.40;87.00;;;;;;6191192;23;19956;-77
2022/02/20 10:15:00;;;;;;;;;;;9.50;85.90;;;;;;6173606;23;19947;-79
2022/02/20 10:17:29;;;;;;;;;;;9.70;84.10;;;;;;6171744;23;19900;-77
2022/02/20 10:20:04;;;;;;;;;;;9.80;83.10;;;;;;6163719;23;19920;-79
2022/02/20 10:22:35;;;;;;;;;;;10.00;82.50;;;;;;6174229;23;19916;-77
2022/02/20 10:25:06;;;;;;;;;;;10.30;80.90;;;;;;6199473;23;19919;-78
2022/02/20 10:27:33;;;;;;;;;;;10.40;80.20;;;;;;6168099;23;19928;-77
2022/02/20 10:30:19;;;;;;;;;;;10.40;79.70;;;;;;6174109;23;19917;-79
2022/02/20 10:33:02;;;;;;;;;;;10.70;79.80;;;;;;6207635;23;19964;-78
2022/02/20 10:35:32;;;;;;;;;;;10.90;77.80;;;;;;6169154;23;19916;-79
2022/02/20 10:38:26;;;;;;;;;;;10.90;76.60;;;;;;6170027;23;19923;-78
2022/02/20 10:40:54;;;;;;;;;;;10.90;76.60;;;;;;6159432;23;19919;-77
2022/02/20 10:43:28;;;;;;;;;;;11.10;75.70;;;;;;6174739;23;19919;-77
2022/02/20 10:46:04;;;;;;;;;;;11.30;76.20;;;;;;6178324;23;19916;-78
2022/02/20 10:48:53;;;;;;;;;;;11.50;74.20;;;;;;6195357;23;19920;-79
2022/02/20 10:51:21;;;;;;;;;;;11.60;73.70;;;;;;6169680;23;19920;-77
2022/02/20 10:53:50;;;;;;;;;;;11.60;72.40;;;;;;6206408;23;19967;-79
2022/02/20 10:56:18;;;;;;;;;;;11.80;73.20;;;;;;6175250;23;19919;-77
2022/02/20 10:58:49;;;;;;;;;;;12.00;71.70;;;;;;6170182;23;19916;-79
2022/02/20 11:01:21;;;;;;;;;;;12.10;70.50;;;;;;6196362;23;19920;-79
2022/02/20 11:03:53;;;;;;;;;;;12.30;69.30;;;;;;6173145;23;20007;-78
2022/02/20 11:06:21;;;;;;;;;;;12.40;66.40;;;;;;6192839;23;19916;-79
2022/02/20 11:08:50;;;;;;;;;;;12.60;66.70;;;;;;6199817;23;19917;-78
2022/02/20 11:11:36;;;;;;;;;;;12.60;64.30;;;;;;6174760;23;19924;-78
2022/02/20 11:14:05;;;;;;;;;;;12.60;64.70;;;;;;6174465;23;19922;-79
2022/02/20 11:16:32;;;;;;;;;;;12.80;63.40;;;;;;6141732;23;19983;-78
2022/02/20 11:19:03;;;;;;;;;;;12.90;63.90;;;;;;6200371;23;20253;-77
2022/02/20 11:21:32;;;;;;;;;;;13.10;62.70;;;;;;6173894;23;20230;-78
2022/02/20 11:24:00;;;;;;;;;;;13.20;61.70;;;;;;6174524;23;19963;-77
2022/02/20 11:26:27;;;;;;;;;;;13.40;61.70;;;;;;6171440;23;19926;-77
2022/02/20 11:28:59;;;;;;;;;;;13.50;60.10;;;;;;6191424;23;19963;-79
2022/02/20 11:31:26;;;;;;;;;;;13.60;58.70;;;;;;6154372;23;19978;-79
2022/02/20 11:33:55;;;;;;;;;;;13.60;58.00;;;;;;6168802;23;19944;-78
2022/02/20 11:36:27;;;;;;;;;;;13.80;59.00;;;;;;6174448;23;19916;-78
2022/02/20 11:39:21;;;;;;;;;;;13.90;58.70;;;;;;6172621;23;19922;-79
2022/02/20 11:42:07;;;;;;;;;;;14.00;58.10;;;;;;6167382;23;19916;-78
2022/02/20 11:45:03;;;;;;;;;;;14.00;57.90;;;;;;6200142;23;20337;-78
2022/02/20 11:47:33;;;;;;;;;;;14.20;58.20;;;;;;6148548;23;19916;-77
2022/02/20 11:50:15;;;;;;;;;;;14.50;58.40;;;;;;6174410;23;19940;-78
2022/02/20 11:52:54;;;;;;;;;;;14.60;57.50;;;;;;6172179;23;19916;-79
2022/02/20 11:55:27;;;;;;;;;;;14.60;55.60;;;;;;6166108;23;20333;-79
2022/02/20 11:58:22;;;;;;;;;;;14.90;56.00;;;;;;6171937;23;19923;-76
2022/02/20 12:00:55;;;;;;;;;;;15.00;56.90;;;;;;6166328;23;19923;-79
2022/02/20 12:03:30;;;;;;;;;;;15.10;56.00;;;;;;6171603;23;20008;-79
2022/02/20 12:06:20;;;;;;;;;;;15.20;55.10;;;;;;6191538;23;19927;-77
2022/02/20 12:08:49;;;;;;;;;;;15.20;55.10;;;;;;6151016;23;19920;-79
2022/02/20 12:11:20;;;;;;;;;;;15.40;53.90;;;;;;6172418;23;19916;-78
2022/02/20 12:13:47;;;;;;;;;;;15.30;52.00;;;;;;6168944;23;19939;-77
2022/02/20 12:16:18;;;;;;;;;;;15.30;52.30;;;;;;6168320;23;19923;-76
2022/02/20 12:19:03;;;;;;;;;;;15.30;52.20;;;;;;6167843;23;19939;-79
2022/02/20 12:21:31;;;;;;;;;;;15.50;51.50;;;;;;6196259;23;19920;-78
2022/02/20 12:24:13;;;;;;;;;;;15.40;51.70;;;;;;6164761;23;20333;-79
2022/02/20 12:26:46;;;;;;;;;;;15.60;51.40;;;;;;6193854;23;19920;-77
2022/02/20 12:29:15;;;;;;;;;;;15.70;50.70;;;;;;6188754;23;19916;-77
2022/02/20 12:32:17;;;;;;;;;;;15.90;52.00;;;;;;6198267;23;19916;-79
2022/02/20 12:35:02;;;;;;;;;;;16.00;51.20;;;;;;6052298;23;19917;-76
2022/02/20 12:37:52;;;;;;;;;;;16.00;50.80;;;;;;6185858;23;20329;-78
2022/02/20 12:40:27;;;;;;;;;;;16.00;51.20;;;;;;6169345;23;19916;-79
2022/02/20 12:42:55;;;;;;;;;;;16.20;52.60;;;;;;6167218;23;19916;-79
2022/02/20 12:45:26;;;;;;;;;;;16.20;50.50;;;;;;6203961;23;19923;-79
2022/02/20 12:47:55;;;;;;;;;;;16.20;50.20;;;;;;6164387;23;19916;-79
2022/02/20 12:50:27;;;;;;;;;;;16.30;51.60;;;;;;6178430;23;19939;-77
2022/02/20 12:52:54;;;;;;;;;;;16.60;51.80;;;;;;6201066;23;19931;-77
2022/02/20 12:55:21;;;;;;;;;;;16.80;51.50;;;;;;6166451;23;19920;-77
2022/02/20 12:57:49;;;;;;;;;;;17.00;49.90;;;;;;6177923;23;19900;-76
2022/02/20 13:00:18;;;;;;;;;;;17.10;48.20;;;;;;6165078;23;19920;-78
2022/02/20 13:02:46;;;;;;;;;;;17.10;47.20;;;;;;6173317;23;19916;-78
2022/02/20 13:05:15;;;;;;;;;;;16.80;47.40;;;;;;6174905;23;19940;-76
2022/02/20 13:07:47;;;;;;;;;;;16.80;46.70;;;;;;6175997;23;20775;-79
2022/02/20 13:10:15;;;;;;;;;;;16.90;47.80;;;;;;6176949;23;19916;-78
2022/02/20 13:13:06;;;;;;;;;;;16.90;44.90;;;;;;6200208;23;19916;-78
2022/02/20 13:15:55;;;;;;;;;;;17.00;44.80;;;;;;6197440;23;19917;-78
2022/02/20 13:18:29;;;;;;;;;;;16.70;45.20;;;;;;6162608;23;19971;-79
2022/02/20 13:20:58;;;;;;;;;;;16.80;44.20;;;;;;6171197;23;19920;-78
2022/02/20 13:23:26;;;;;;;;;;;16.80;44.70;;;;;;6168075;23;19995;-78
2022/02/20 13:25:58;;;;;;;;;;;16.90;45.00;;;;;;6175329;23;19901;-77
2022/02/20 13:28:27;;;;;;;;;;;17.00;45.00;;;;;;6165904;23;19967;-79
2022/02/20 13:30:58;;;;;;;;;;;17.10;44.50;;;;;;6172100;23;19920;-77
2022/02/20 13:33:29;;;;;;;;;;;17.30;44.50;;;;;;6163153;23;20360;-78
2022/02/20 13:35:56;;;;;;;;;;;17.40;42.20;;;;;;6175445;23;19940;-79
2022/02/20 13:38:27;;;;;;;;;;;17.40;43.20;;;;;;6159922;23;19971;-77
2022/02/20 13:40:55;;;;;;;;;;;17.40;43.60;;;;;;6160721;23;19917;-79
2022/02/20 13:43:23;;;;;;;;;;;17.40;42.60;;;;;;6174710;23;19922;-78
2022/02/20 13:45:54;;;;;;;;;;;17.40;44.60;;;;;;6166245;23;19916;-79
2022/02/20 13:48:26;;;;;;;;;;;17.30;43.60;;;;;;6180442;23;19901;-77
2022/02/20 13:51:12;;;;;;;;;;;17.20;43.20;;;;;;6176304;23;20269;-78
2022/02/20 13:53:45;;;;;;;;;;;17.30;44.10;;;;;;6171355;23;19975;-76
2022/02/20 20:04:21;;;;;;;;;;;7.20;74.10;;;;;;6105503;23;19971;-76
2022/02/20 20:06:50;;;;;;;;;;;7.10;73.50;;;;;;6194464;23;19920;-78
2022/02/20 20:09:17;;;;;;;;;;;7.10;74.80;;;;;;6166995;23;19920;-77
2022/02/20 20:11:45;;;;;;;;;;;7.10;75.90;;;;;;6192073;23;19920;-78
2022/02/20 20:14:11;;;;;;;;;;;7.10;75.60;;;;;;6181383;23;19904;-77
2022/02/20 20:16:38;;;;;;;;;;;7.10;76.00;;;;;;6196599;23;19915;-77
2022/02/20 20:19:09;;;;;;;;;;;7.10;76.10;;;;;;6197196;23;19923;-78
2022/02/20 20:21:36;;;;;;;;;;;7.10;75.80;;;;;;6164814;23;19921;-78
2022/02/20 20:24:03;;;;;;;;;;;7.10;75.50;;;;;;6176848;23;19916;-77
2022/02/20 20:26:30;;;;;;;;;;;7.10;75.50;;;;;;6173693;23;19916;-78
2022/02/20 20:28:57;;;;;;;;;;;7.10;75.20;;;;;;6164829;23;19916;-78
2022/02/20 20:31:24;;;;;;;;;;;7.00;75.30;;;;;;6165926;23;19916;-77
2022/02/20 20:33:52;;;;;;;;;;;7.00;75.40;;;;;;6173137;23;19920;-78
2022/02/20 20:36:19;;;;;;;;;;;6.90;75.40;;;;;;6196858;23;20257;-79
2022/02/20 20:38:46;;;;;;;;;;;6.90;75.80;;;;;;6167772;23;19915;-79
2022/02/20 20:41:13;;;;;;;;;;;6.80;75.40;;;;;;6164142;23;20238;-79
2022/02/20 20:43:41;;;;;;;;;;;6.80;75.30;;;;;;6196831;23;19920;-78
2022/02/20 20:46:08;;;;;;;;;;;6.80;76.40;;;;;;6191720;23;20330;-79
2022/02/20 20:48:37;;;;;;;;;;;6.60;76.80;;;;;;6145119;23;19924;-78
2022/02/20 20:51:04;;;;;;;;;;;6.50;76.70;;;;;;6173129;23;19916;-78
2022/02/20 20:53:31;;;;;;;;;;;6.50;76.70;;;;;;6169004;23;20333;-79
2022/02/20 20:55:58;;;;;;;;;;;6.50;76.50;;;;;;6174460;23;19916;-78
2022/02/20 20:58:25;;;;;;;;;;;6.40;77.50;;;;;;6202832;23;19923;-77
2022/02/20 21:00:52;;;;;;;;;;;6.40;78.50;;;;;;6167987;23;20372;-78
2022/02/20 21:03:18;;;;;;;;;;;6.40;79.90;;;;;;6164518;23;19920;-77
2022/02/20 21:05:46;;;;;;;;;;;6.40;78.30;;;;;;6173500;23;19924;-78
2022/02/20 21:08:14;;;;;;;;;;;6.40;77.70;;;;;;6164782;23;19916;-77
2022/02/20 21:10:41;;;;;;;;;;;6.40;77.50;;;;;;6199556;23;19920;-78
2022/02/20 21:13:08;;;;;;;;;;;6.40;77.30;;;;;;6170010;23;20360;-77
2022/02/20 21:15:35;;;;;;;;;;;6.40;77.20;;;;;;6160111;23;20357;-79
2022/02/20 21:18:02;;;;;;;;;;;6.40;77.30;;;;;;6165112;23;20260;-79
2022/02/20 21:20:29;;;;;;;;;;;6.30;77.10;;;;;;6178133;23;19920;-78
2022/02/20 21:22:56;;;;;;;;;;;6.30;76.80;;;;;;6173099;23;20337;-79
2022/02/20 21:25:23;;;;;;;;;;;6.30;76.70;;;;;;6168421;23;20388;-77
2022/02/20 21:27:50;;;;;;;;;;;6.20;77.20;;;;;;6171853;23;19916;-78
2022/02/20 21:30:16;;;;;;;;;;;6.10;77.10;;;;;;6173048;23;19920;-78
2022/02/20 21:32:43;;;;;;;;;;;6.10;77.50;;;;;;6171405;23;19916;-77
2022/02/20 21:35:11;;;;;;;;;;;6.10;77.40;;;;;;6172580;23;19920;-77
2022/02/20 21:37:38;;;;;;;;;;;6.00;77.00;;;;;;6178739;23;19900;-78
2022/02/20 21:40:06;;;;;;;;;;;6.00;77.30;;;;;;6171666;23;19922;-77
2022/02/20 21:42:34;;;;;;;;;;;5.90;77.30;;;;;;6171680;23;20329;-77
2022/02/20 21:45:02;;;;;;;;;;;5.90;77.20;;;;;;6173406;23;19920;-79
2022/02/20 21:47:29;;;;;;;;;;;5.90;78.10;;;;;;6180346;23;20261;-77
2022/02/20 21:49:56;;;;;;;;;;;5.90;77.70;;;;;;6188385;23;20003;-78
2022/02/20 21:52:22;;;;;;;;;;;5.90;77.90;;;;;;6172835;23;19920;-78
2022/02/20 21:54:49;;;;;;;;;;;5.80;79.00;;;;;;6167332;23;19916;-77
2022/02/20 21:57:18;;;;;;;;;;;5.80;78.30;;;;;;6138727;23;19917;-77